Springlake, TX

8:45 PM CDT on August 28, 2014 (GMT -0500)
Lubbock International | Change Station
CLOSE
Current Station
Airport
Location: Lubbock,
Elevation: 3241 ft
Nearby Weather Stations

Elev 3241 ft 33.67 °N, 101.82 °W | Updated 52 minutes ago

Mostly Cloudy
Mostly Cloudy
81 °F
Feels Like 82 °F
N
6
Wind Variable Wind from South

Today
High -- | Low -- °F
--% Chance of Precip.
Yesterday
High -- | Low -- °F
Precip. -- in
7:19 AM 8:20 PM
Waxing Crescent, 11% visible
Pressure 29.74 in
Visibility 10.0 miles
Clouds Mostly Cloudy 11000 ft
Mostly Cloudy 26000 ft
Mostly Cloudy 30000 ft
Heat Index 82 °F
Dew Point 64 °F
Humidity 56%
Rainfall 0.13 in
Snow Depth Not available.
UV 0 out of 12
Pollen 9.40 out of 12
Air Quality Not available.
Flu Activity Not available.
METAR KLBB 290053Z 19005KT 10SM BKN110 BKN260 BKN300 27/18 A2990 RMK AO2 SLP071 CB DSNT NE-SE-S MOV E MDT CU ALQDS T02720178

More Conditions Fewer Conditions

Pressure 29.74 in
Visibility 10.0 miles
Clouds Mostly Cloudy 11000 ft
Mostly Cloudy 26000 ft
Mostly Cloudy 30000 ft
Heat Index 82 °F
Dew Point 64 °F
Humidity 56%
Rainfall 0.13 in
Snow Depth Not available.
UV 0 out of 12
Pollen 9.40 out of 12
Air Quality Not available.
Flu Activity Not available.
METAR KLBB 290053Z 19005KT 10SM BKN110 BKN260 BKN300 27/18 A2990 RMK AO2 SLP071 CB DSNT NE-SE-S MOV E MDT CU ALQDS T02720178

More Conditions Fewer Conditions

10-Day Weather Forecast

Almanac

Astronomy

Aug. 28, 2014 Rise Set
Actual Time 7:19 AM CDT 8:20 PM CDT
Civil Twilight 6:54 AM CDT 8:46 PM CDT
Nautical Twilight 6:23 AM CDT 9:16 PM CDT
Astronomical Twilight 5:51 AM CDT 9:48 PM CDT
Moon 10:04 AM CDT (8/28) 9:56 PM CDT (8/28)
Length of Visible Light 13h 52m
Length of Day
13h 00m
Tomorrow will be 2m 0s shorter.
Waxing Crescent, 11% of the Moon is Illuminated
Today
Waxing Crescent
Sep 2
First Quarter
Sep 8
Full
Sep 15
Last Quarter
Sep 24
New

Today's Extremes

State Highs State Lows

Community

WunderPhotos

Upload Photos

1,748,131 photos uploaded!

Nearby

Snow Depth

Station Depth Elevation
No new snow has been reported.

Earthquake Activity

City Distance Mag. Time & Date
No recent earthquake activity has been reported nearby.
Minimum magnitude displayed is 2.5.

Coastal Water Temperatures

Place Temperature
No Stations Reporting

Nearby Weather Stations